This is the latest recevied weather packets stored in our database for station/object DL4JCP-6. If no packets are shown the sender has not sent any weather packets the latest 10 day(s).
| Time | Temp. | Humidity | Pressure | Rain* | Wind** | Luminosity | Snow |
|---|---|---|---|---|---|---|---|
| 1778300294 | 4.44° C | 96% | 1020 hPa | 0 mm | - | - | - |
| 1778298494 | 4.44° C | 96% | 1020 hPa | 0 mm | - | - | - |
| 1778297594 | 4.44° C | 95% | 1020.2 hPa | 0 mm | - | - | - |
| 1778296694 | 4.44° C | 95% | 1020.3 hPa | 0 mm | - | - | - |
| 1778294894 | 5.56° C | 96% | 1020.5 hPa | 0 mm | - | - | - |
| 1778293997 | 5.56° C | 96% | 1020.4 hPa | 0 mm | - | - | - |
| 1778292194 | 5.56° C | 96% | 1020.5 hPa | 0 mm | - | - | - |
| 1778291294 | 5.56° C | 96% | 1020.4 hPa | 0 mm | - | - | - |
| 1778290394 | 5° C | 96% | 1020.3 hPa | 0 mm | - | - | - |
| 1778289494 | 5° C | 96% | 1020.3 hPa | 0 mm | - | - | - |
| 1778288594 | 5° C | 95% | 1020.2 hPa | 0 mm | - | - | - |
| 1778287693 | 5° C | 96% | 1020.2 hPa | 0 mm | - | - | - |
| 1778286794 | 5° C | 95% | 1020.2 hPa | 0 mm | - | - | - |
| 1778285894 | 5° C | 95% | 1020.1 hPa | 0 mm | - | - | - |
| 1778284994 | 5° C | 95% | 1020.2 hPa | 0.25 mm | - | - | - |
| 1778284094 | 5° C | 95% | 1020.3 hPa | 0.25 mm | - | - | - |
| 1778283194 | 5° C | 95% | 1020.3 hPa | 0.25 mm | - | - | - |
| 1778282294 | 5.56° C | 95% | 1020.6 hPa | 0.25 mm | - | - | - |
| 1778280494 | 6.67° C | 95% | 1020.9 hPa | 0 mm | - | - | - |
| 1778279594 | 6.67° C | 95% | 1020.9 hPa | 0 mm | - | - | - |
| 1778278694 | 7.22° C | 95% | 1021 hPa | 0 mm | - | - | - |
| 1778275994 | 7.22° C | 95% | 1020.8 hPa | 0 mm | - | - | - |
| 1778275093 | 7.22° C | 95% | 1020.9 hPa | 0 mm | - | - | - |
| 1778274193 | 7.22° C | 95% | 1021 hPa | 0 mm | - | - | - |
| 1778272394 | 7.22° C | 95% | 1021 hPa | 0 mm | - | - | - |
* Rain latest hour (hover to see other rain measurements)
** Current wind speed in m/s (hover to see current wind gust speed)